createdAt,value
2022-10-19T00:03:01.616Z,12.07
2022-10-19T00:05:47.189Z,11.77
2022-10-19T00:08:33.112Z,11.13
2022-10-19T00:11:19.389Z,10.88
2022-10-19T00:14:05.262Z,11.23
2022-10-19T00:16:52.571Z,11.20
2022-10-19T00:19:38.189Z,11.00
2022-10-19T00:22:23.922Z,11.07
2022-10-19T00:25:09.737Z,10.38
2022-10-19T00:27:55.520Z,10.65
2022-10-19T00:30:41.353Z,10.38
2022-10-19T00:33:26.993Z,10.20
2022-10-19T00:36:21.554Z,9.93
2022-10-19T00:39:10.915Z,11.02
2022-10-19T00:41:56.751Z,11.00
2022-10-19T00:44:42.637Z,9.73
2022-10-19T00:47:29.173Z,10.60
2022-10-19T00:50:15.190Z,10.30
2022-10-19T00:53:01.481Z,10.32
2022-10-19T00:55:47.174Z,10.48
2022-10-19T00:58:33.244Z,10.88
2022-10-19T01:01:21.027Z,10.38
2022-10-19T01:04:06.846Z,10.98
2022-10-19T01:06:55.571Z,10.55
2022-10-19T01:09:41.348Z,10.02
2022-10-19T01:12:56.034Z,10.38
2022-10-19T01:15:47.478Z,11.57
2022-10-19T01:18:45.082Z,10.65
2022-10-19T01:22:08.538Z,10.50
2022-10-19T01:25:09.890Z,11.48
2022-10-19T01:28:15.357Z,10.80
2022-10-19T01:31:25.227Z,9.68
2022-10-19T01:34:32.570Z,9.88
2022-10-19T01:37:23.235Z,10.02
2022-10-19T01:40:13.080Z,10.10
2022-10-19T01:43:03.615Z,9.60
2022-10-19T01:45:55.113Z,10.05
2022-10-19T01:48:48.573Z,9.70
2022-10-19T01:51:36.312Z,9.20
2022-10-19T01:54:22.846Z,9.70
2022-10-19T01:57:11.642Z,9.48
2022-10-19T01:59:58.274Z,9.15
2022-10-19T02:02:47.984Z,9.07
2022-10-19T02:05:34.803Z,9.20
2022-10-19T02:08:29.212Z,9.10
2022-10-19T02:11:16.010Z,8.32
2022-10-19T02:14:07.782Z,8.95
2022-10-19T02:16:59.029Z,8.18
2022-10-19T02:19:45.371Z,7.70
2022-10-19T02:22:31.572Z,8.30
2022-10-19T02:25:17.514Z,8.75
2022-10-19T02:28:04.551Z,7.90
2022-10-19T02:30:50.651Z,7.90
2022-10-19T02:33:36.992Z,7.85
2022-10-19T02:36:23.127Z,7.88
2022-10-19T02:39:09.023Z,8.10
2022-10-19T02:42:11.787Z,7.43
2022-10-19T02:45:00.575Z,7.53
2022-10-19T02:47:54.931Z,7.75
2022-10-19T02:50:45.126Z,6.80
2022-10-19T02:53:31.366Z,7.18
2022-10-19T02:56:16.800Z,7.78
2022-10-19T02:59:03.528Z,7.57
2022-10-19T03:01:49.143Z,7.18
2022-10-19T03:04:35.176Z,7.30
2022-10-19T03:07:21.748Z,7.63
2022-10-19T03:10:07.726Z,7.78
2022-10-19T03:12:53.232Z,7.10
2022-10-19T03:15:39.002Z,7.55
2022-10-19T03:18:24.560Z,7.65
2022-10-19T03:21:12.899Z,7.13
2022-10-19T03:24:00.790Z,6.85
2022-10-19T03:26:46.883Z,6.45
2022-10-19T03:29:32.531Z,6.35
2022-10-19T03:32:18.512Z,7.00
2022-10-19T03:35:04.821Z,6.35
2022-10-19T03:37:50.539Z,6.43
2022-10-19T03:40:36.352Z,6.00
2022-10-19T03:43:22.105Z,6.25
2022-10-19T03:46:08.618Z,5.55
2022-10-19T03:48:55.076Z,5.53
2022-10-19T03:51:40.843Z,5.85
2022-10-19T03:54:27.574Z,5.38
2022-10-19T03:57:13.523Z,5.82
2022-10-19T03:59:59.812Z,5.40
2022-10-19T04:02:45.645Z,5.57
2022-10-19T04:05:31.405Z,5.70
2022-10-19T04:08:17.203Z,5.03
2022-10-19T04:11:07.965Z,5.75
2022-10-19T04:13:54.325Z,5.50
2022-10-19T04:16:40.120Z,5.82
2022-10-19T04:19:25.610Z,5.38
2022-10-19T04:22:11.125Z,4.95
2022-10-19T04:24:56.727Z,5.53
2022-10-19T04:27:42.546Z,4.93
2022-10-19T04:30:28.115Z,4.55
2022-10-19T04:33:14.293Z,4.63
2022-10-19T04:36:05.139Z,4.30
2022-10-19T04:38:50.870Z,4.10
2022-10-19T04:41:37.884Z,4.22
2022-10-19T04:47:14.107Z,4.28
2022-10-19T04:49:59.664Z,4.97
2022-10-19T04:52:45.873Z,4.45
2022-10-19T04:55:31.600Z,4.68
2022-10-19T04:58:17.276Z,5.40
2022-10-19T05:01:17.273Z,4.57
2022-10-19T05:04:03.619Z,5.50
2022-10-19T05:06:49.655Z,4.88
2022-10-19T05:09:35.213Z,4.80
2022-10-19T05:12:21.267Z,6.55
2022-10-19T05:15:07.295Z,4.40
2022-10-19T05:17:54.399Z,3.85
2022-10-19T05:20:40.384Z,4.15
2022-10-19T05:23:26.302Z,4.32
2022-10-19T05:26:17.443Z,4.05
2022-10-19T05:29:04.522Z,4.05
2022-10-19T05:31:51.036Z,2.97
2022-10-19T05:34:36.594Z,3.40
2022-10-19T05:37:22.489Z,4.30
2022-10-19T05:40:09.480Z,4.18
2022-10-19T05:42:55.575Z,4.68
2022-10-19T05:45:42.016Z,3.70
2022-10-19T05:48:32.941Z,3.83
2022-10-19T05:51:20.266Z,3.08
2022-10-19T05:54:06.507Z,3.42
2022-10-19T05:56:52.708Z,3.80
2022-10-19T05:59:38.160Z,3.60
2022-10-19T06:02:24.399Z,3.10
2022-10-19T06:05:10.282Z,3.03
2022-10-19T06:07:55.909Z,5.57
2022-10-19T06:10:41.416Z,4.07
2022-10-19T06:13:27.284Z,2.90
2022-10-19T06:16:18.289Z,3.20
2022-10-19T06:19:05.282Z,2.97
2022-10-19T06:21:50.906Z,3.53
2022-10-19T06:24:36.908Z,3.70
2022-10-19T06:27:22.821Z,3.58
2022-10-19T06:30:09.229Z,3.42
2022-10-19T06:32:55.016Z,4.20
2022-10-19T06:35:42.991Z,3.95
2022-10-19T06:38:28.606Z,2.97
2022-10-19T06:41:14.198Z,3.70
2022-10-19T06:44:00.172Z,3.20
2022-10-19T06:46:46.588Z,3.08
2022-10-19T06:49:32.085Z,2.92
2022-10-19T06:52:17.952Z,3.42
2022-10-19T06:55:04.004Z,3.30
2022-10-19T06:57:50.216Z,3.10
2022-10-19T07:00:36.671Z,3.42
2022-10-19T07:03:22.216Z,3.00
2022-10-19T07:06:09.949Z,2.90
2022-10-19T07:08:55.847Z,3.15
2022-10-19T07:11:45.726Z,3.15
2022-10-19T07:14:38.566Z,2.95
2022-10-19T07:17:24.050Z,3.67
2022-10-19T07:20:10.773Z,2.75
2022-10-19T07:22:56.543Z,2.88
2022-10-19T07:25:42.505Z,2.55
2022-10-19T07:28:29.476Z,2.47
2022-10-19T07:31:20.684Z,2.25
2022-10-19T07:36:52.648Z,2.50
2022-10-19T07:39:38.525Z,2.35
2022-10-19T07:42:24.584Z,2.50
2022-10-19T07:45:10.635Z,2.67
2022-10-19T07:47:56.744Z,2.72
2022-10-19T07:50:47.924Z,3.25
2022-10-19T07:53:34.753Z,3.00
2022-10-19T07:56:23.017Z,2.95
2022-10-19T07:59:09.941Z,2.65
2022-10-19T08:01:57.128Z,2.88
2022-10-19T08:04:59.393Z,3.00
2022-10-19T08:07:46.995Z,3.10
2022-10-19T08:10:33.208Z,3.28
2022-10-19T08:13:18.780Z,3.10
2022-10-19T08:16:04.974Z,2.58
2022-10-19T08:18:51.166Z,3.00
2022-10-19T08:21:38.129Z,3.13
2022-10-19T08:24:23.589Z,2.92
2022-10-19T08:27:09.375Z,2.67
2022-10-19T08:29:55.260Z,2.67
2022-10-19T08:32:41.221Z,2.20
2022-10-19T08:35:27.768Z,2.13
2022-10-19T08:38:13.360Z,2.53
2022-10-19T08:41:08.940Z,2.72
2022-10-19T08:44:18.698Z,2.95
2022-10-19T08:47:38.668Z,2.50
2022-10-19T08:50:44.402Z,2.70
2022-10-19T08:53:40.239Z,2.97
2022-10-19T08:56:50.566Z,2.70
2022-10-19T09:02:33.019Z,2.50
2022-10-19T09:05:34.395Z,2.72
2022-10-19T09:08:20.780Z,2.83
2022-10-19T09:11:09.773Z,3.03
2022-10-19T09:14:05.630Z,2.72
2022-10-19T09:16:52.010Z,2.72
2022-10-19T09:19:38.380Z,3.38
2022-10-19T09:22:29.797Z,3.65
2022-10-19T09:25:21.772Z,3.17
2022-10-19T09:28:25.693Z,2.90
2022-10-19T09:31:29.123Z,2.85
2022-10-19T09:37:04.441Z,2.78
2022-10-19T09:39:54.125Z,2.40
2022-10-19T09:42:40.979Z,3.97
2022-10-19T09:45:35.208Z,2.70
2022-10-19T09:48:29.888Z,2.20
2022-10-19T09:51:17.260Z,2.10
2022-10-19T09:54:04.302Z,2.20
2022-10-19T09:56:54.430Z,2.08
2022-10-19T09:59:42.419Z,2.17
2022-10-19T10:02:31.029Z,2.03
2022-10-19T10:05:16.794Z,2.70
2022-10-19T10:08:04.359Z,1.90
2022-10-19T10:11:12.397Z,1.50
2022-10-19T10:14:00.656Z,1.95
2022-10-19T10:16:46.424Z,1.70
2022-10-19T10:19:33.941Z,1.30
2022-10-19T10:22:26.053Z,1.35
2022-10-19T10:25:16.275Z,1.30
2022-10-19T10:28:18.376Z,1.40
2022-10-19T10:31:07.905Z,1.48
2022-10-19T10:34:10.825Z,1.42
2022-10-19T10:37:11.312Z,1.23
2022-10-19T10:40:01.755Z,1.20
2022-10-19T10:42:52.320Z,1.15
2022-10-19T10:45:41.161Z,1.00
2022-10-19T10:48:41.458Z,1.10
2022-10-19T10:51:32.030Z,1.00
2022-10-19T10:54:30.426Z,1.00
2022-10-19T10:57:19.981Z,1.90
2022-10-19T11:00:12.262Z,1.05
2022-10-19T11:03:13.467Z,1.00
2022-10-19T11:06:05.368Z,1.00
2022-10-19T11:08:57.858Z,0.88
2022-10-19T11:11:46.232Z,0.98
2022-10-19T11:14:52.531Z,0.90
2022-10-19T11:17:41.449Z,0.85
2022-10-19T11:20:30.363Z,0.90
2022-10-19T11:23:41.061Z,0.85
2022-10-19T11:29:35.830Z,1.10
2022-10-19T11:32:47.129Z,1.00
2022-10-19T11:35:45.052Z,1.10
2022-10-19T11:38:37.030Z,1.00
2022-10-19T11:41:44.645Z,1.00
2022-10-19T11:44:36.857Z,0.80
2022-10-19T11:48:02.612Z,0.75
2022-10-19T11:50:54.048Z,1.17
2022-10-19T11:53:58.516Z,0.68
2022-10-19T11:57:04.073Z,1.00
2022-10-19T11:59:50.843Z,0.60
2022-10-19T12:02:39.697Z,0.88
2022-10-19T12:05:28.013Z,1.75
2022-10-19T12:08:42.760Z,0.63
2022-10-19T12:11:49.996Z,0.70
2022-10-19T12:14:37.281Z,1.02
2022-10-19T12:17:29.614Z,1.35
2022-10-19T12:20:41.389Z,1.10
2022-10-19T12:23:38.577Z,0.80
2022-10-19T12:26:24.993Z,0.60
2022-10-19T12:29:16.447Z,0.90
2022-10-19T12:32:03.503Z,0.60
2022-10-19T12:35:00.447Z,0.60
2022-10-19T12:38:02.883Z,0.82
2022-10-19T12:40:54.261Z,1.00
2022-10-19T12:43:55.999Z,0.50
2022-10-19T12:46:47.012Z,0.50
2022-10-19T12:49:35.894Z,0.70
2022-10-19T12:52:42.263Z,1.40
2022-10-19T12:55:34.712Z,0.60
2022-10-19T12:58:21.966Z,0.80
2022-10-19T13:01:09.531Z,0.60
2022-10-19T13:04:13.850Z,0.68
2022-10-19T13:07:03.232Z,0.57
2022-10-19T13:09:49.350Z,0.73
2022-10-19T13:12:44.176Z,0.60
2022-10-19T13:15:36.471Z,0.85
2022-10-19T13:19:02.193Z,1.02
2022-10-19T13:22:12.870Z,0.80
2022-10-19T13:28:07.992Z,0.60
2022-10-19T13:31:00.489Z,0.90
2022-10-19T13:33:52.244Z,0.90
2022-10-19T13:36:40.215Z,1.00
2022-10-19T13:39:27.769Z,1.10
2022-10-19T13:42:24.230Z,0.90
2022-10-19T13:45:21.953Z,0.90
2022-10-19T13:48:18.852Z,0.82
2022-10-19T13:51:11.227Z,1.08
2022-10-19T13:54:23.815Z,1.23
2022-10-19T13:57:18.721Z,0.80
2022-10-19T14:00:18.131Z,0.82
2022-10-19T14:03:19.328Z,1.00
2022-10-19T14:06:27.656Z,0.90
2022-10-19T14:09:29.511Z,1.20
2022-10-19T14:12:24.446Z,0.80
2022-10-19T14:15:25.787Z,0.80
2022-10-19T14:18:22.975Z,0.70
2022-10-19T14:21:09.838Z,0.90
2022-10-19T14:23:55.740Z,0.73
2022-10-19T14:26:41.290Z,0.70
2022-10-19T14:29:27.481Z,0.88
2022-10-19T14:32:13.882Z,1.10
2022-10-19T14:35:06.844Z,1.55
2022-10-19T14:37:52.880Z,1.55
2022-10-19T14:40:40.735Z,2.63
2022-10-19T14:43:30.424Z,2.88
2022-10-19T14:46:16.954Z,3.83
2022-10-19T14:49:06.164Z,1.90
2022-10-19T14:51:55.377Z,2.67
2022-10-19T14:54:43.751Z,2.30
2022-10-19T14:57:33.088Z,2.63
2022-10-19T15:00:21.978Z,5.20
2022-10-19T15:03:11.463Z,3.90
2022-10-19T15:06:01.671Z,3.40
2022-10-19T15:08:51.079Z,6.28
2022-10-19T15:11:39.459Z,6.20
2022-10-19T15:14:30.821Z,6.35
2022-10-19T15:17:26.200Z,5.13
2022-10-19T15:20:26.446Z,2.42
2022-10-19T15:23:33.728Z,2.92
2022-10-19T15:26:52.326Z,6.05
2022-10-19T15:30:04.874Z,5.22
2022-10-19T15:33:04.325Z,11.95
2022-10-19T15:35:50.642Z,10.73
2022-10-19T15:38:36.421Z,9.00
2022-10-19T15:41:30.543Z,9.82
2022-10-19T15:44:51.934Z,6.60
2022-10-19T15:47:37.476Z,5.40
2022-10-19T15:50:37.950Z,4.43
2022-10-19T15:53:25.088Z,4.18
2022-10-19T15:56:13.585Z,3.78
2022-10-19T15:59:04.125Z,3.55
2022-10-19T16:01:55.001Z,4.47
2022-10-19T16:04:42.051Z,4.53
2022-10-19T16:07:30.710Z,3.67
2022-10-19T16:10:19.186Z,5.95
2022-10-19T16:13:05.088Z,5.40
2022-10-19T16:16:01.296Z,4.70
2022-10-19T16:18:56.991Z,4.18
2022-10-19T16:21:45.639Z,4.00
2022-10-19T16:24:33.619Z,3.63
2022-10-19T16:27:19.133Z,4.00
2022-10-19T16:30:05.836Z,4.57
2022-10-19T16:32:51.416Z,5.78
2022-10-19T16:35:37.914Z,6.10
2022-10-19T16:38:23.560Z,7.55
2022-10-19T16:41:10.570Z,8.52
2022-10-19T16:43:56.810Z,13.88
2022-10-19T16:46:42.844Z,13.93
2022-10-19T16:49:28.529Z,13.25
2022-10-19T16:52:14.461Z,14.85
2022-10-19T16:55:00.139Z,13.95
2022-10-19T16:57:45.865Z,13.00
2022-10-19T17:00:31.765Z,33.47
2022-10-19T17:03:17.463Z,24.27
2022-10-19T17:06:05.224Z,45.60
2022-10-19T17:09:29.930Z,27.33
2022-10-19T17:11:56.494Z,23.77
2022-10-19T17:14:42.879Z,21.20
2022-10-19T17:17:28.683Z,24.58
2022-10-19T17:20:15.772Z,27.48
2022-10-19T17:23:01.621Z,23.70
2022-10-19T17:25:48.389Z,20.60
2022-10-19T17:28:35.196Z,18.77
2022-10-19T17:31:21.194Z,15.98
2022-10-19T17:34:07.227Z,17.30
2022-10-19T17:36:52.880Z,19.30
2022-10-19T17:39:38.402Z,20.25
2022-10-19T17:42:24.122Z,19.27
2022-10-19T17:45:10.139Z,15.00
2022-10-19T17:47:56.525Z,10.95
2022-10-19T17:50:42.245Z,10.50
2022-10-19T17:53:29.049Z,10.65
2022-10-19T17:56:19.369Z,10.15
2022-10-19T17:59:08.195Z,11.20
2022-10-19T18:01:54.201Z,11.15
2022-10-19T18:04:40.329Z,12.57
2022-10-19T18:07:26.568Z,12.52
2022-10-19T18:10:13.444Z,12.98
2022-10-19T18:12:59.165Z,13.52
2022-10-19T18:15:45.081Z,13.70
2022-10-19T18:18:32.932Z,12.50
2022-10-19T18:21:21.218Z,12.73
2022-10-19T18:24:14.283Z,14.43
2022-10-19T18:27:01.521Z,15.45
2022-10-19T18:29:47.387Z,16.70
2022-10-19T18:32:33.586Z,15.77
2022-10-19T18:35:19.594Z,14.82
2022-10-19T18:38:06.602Z,14.45
2022-10-19T18:40:53.426Z,13.68
2022-10-19T18:43:40.646Z,13.45
2022-10-19T18:46:26.705Z,12.73
2022-10-19T18:49:13.089Z,12.45
2022-10-19T18:51:58.676Z,11.35
2022-10-19T18:54:44.874Z,12.00
2022-10-19T18:57:31.868Z,12.18
2022-10-19T19:00:17.610Z,9.73
2022-10-19T19:03:03.582Z,10.68
2022-10-19T19:05:50.061Z,9.90
2022-10-19T19:08:36.502Z,10.20
2022-10-19T19:11:24.656Z,9.65
2022-10-19T19:14:15.973Z,8.70
2022-10-19T19:17:02.002Z,9.40
2022-10-19T19:19:47.423Z,9.75
2022-10-19T19:22:34.392Z,8.55
2022-10-19T19:25:20.667Z,11.20
2022-10-19T19:28:06.593Z,12.23
2022-10-19T19:30:52.525Z,12.23
2022-10-19T19:33:39.112Z,12.32
2022-10-19T19:36:25.103Z,11.98
2022-10-19T19:39:10.891Z,11.30
2022-10-19T19:41:56.690Z,10.75
2022-10-19T19:44:42.961Z,11.70
2022-10-19T19:47:28.504Z,12.40
2022-10-19T19:50:14.962Z,12.48
2022-10-19T19:53:02.039Z,12.60
2022-10-19T19:55:48.958Z,11.05
2022-10-19T19:58:35.058Z,11.25
2022-10-19T20:01:21.649Z,10.88
2022-10-19T20:04:07.498Z,13.50
2022-10-19T20:06:53.515Z,11.70
2022-10-19T20:09:39.562Z,36.85
2022-10-19T20:12:25.737Z,21.90
2022-10-19T20:15:12.876Z,26.10
2022-10-19T20:17:59.069Z,22.08
2022-10-19T20:20:44.522Z,21.80
2022-10-19T20:23:31.183Z,22.10
2022-10-19T20:26:18.756Z,21.45
2022-10-19T20:29:05.221Z,18.40
2022-10-19T20:31:50.801Z,18.48
2022-10-19T20:34:36.893Z,22.63
2022-10-19T20:37:22.447Z,24.13
2022-10-19T20:40:09.370Z,30.92
2022-10-19T20:42:56.528Z,39.83
2022-10-19T20:45:42.948Z,30.48
2022-10-19T20:48:29.403Z,24.98
2022-10-19T20:51:29.121Z,22.88
2022-10-19T20:54:17.402Z,24.73
2022-10-19T20:57:03.821Z,26.48
2022-10-19T20:59:49.902Z,25.48
2022-10-19T21:02:36.097Z,21.55
2022-10-19T21:05:23.090Z,18.10
2022-10-19T21:08:10.434Z,16.98
2022-10-19T21:10:56.743Z,15.30
2022-10-19T21:13:43.120Z,16.17
2022-10-19T21:16:35.472Z,15.80
2022-10-19T21:19:23.818Z,15.15
2022-10-19T21:22:09.392Z,13.02
2022-10-19T21:24:55.771Z,12.50
2022-10-19T21:27:41.862Z,16.23
2022-10-19T21:30:27.909Z,17.15
2022-10-19T21:33:14.471Z,26.55
2022-10-19T21:36:02.855Z,26.17
2022-10-19T21:38:48.915Z,21.65
2022-10-19T21:41:34.583Z,14.05
2022-10-19T21:44:22.166Z,14.38
2022-10-19T21:47:08.019Z,9.65
2022-10-19T21:49:53.749Z,9.32
2022-10-19T21:52:39.638Z,9.45
2022-10-19T21:55:25.613Z,8.50
2022-10-19T21:58:11.666Z,9.07
2022-10-19T22:01:04.333Z,8.57
2022-10-19T22:03:54.306Z,10.27
2022-10-19T22:06:40.709Z,14.82
2022-10-19T22:09:26.793Z,19.08
2022-10-19T22:17:50.075Z,20.60
2022-10-19T22:20:37.200Z,22.27
2022-10-19T22:23:23.095Z,16.50
2022-10-19T22:26:17.570Z,15.73
2022-10-19T22:29:04.557Z,15.70
2022-10-19T22:31:50.466Z,15.05
2022-10-19T22:34:36.904Z,18.20
2022-10-19T22:37:23.249Z,18.17
2022-10-19T22:40:10.045Z,16.75
2022-10-19T22:42:55.672Z,17.10
2022-10-19T22:45:41.107Z,16.08
2022-10-19T22:48:27.201Z,17.25
2022-10-19T22:51:12.833Z,16.85
2022-10-19T22:53:58.825Z,15.00
2022-10-19T22:56:44.557Z,15.70
2022-10-19T22:59:30.569Z,17.80
2022-10-19T23:02:16.066Z,16.48
2022-10-19T23:05:01.773Z,15.40
2022-10-19T23:07:47.667Z,15.18
2022-10-19T23:10:33.878Z,15.73
2022-10-19T23:13:20.480Z,14.50
2022-10-19T23:16:06.700Z,14.30
2022-10-19T23:18:52.567Z,13.70
2022-10-19T23:21:38.177Z,13.35
2022-10-19T23:24:24.683Z,13.70
2022-10-19T23:27:10.732Z,12.43
2022-10-19T23:29:56.884Z,12.48
2022-10-19T23:32:42.532Z,12.35
2022-10-19T23:35:28.326Z,12.02
2022-10-19T23:38:14.260Z,12.27
2022-10-19T23:41:00.003Z,11.65
2022-10-19T23:43:46.606Z,11.25
2022-10-19T23:46:32.481Z,12.00
2022-10-19T23:49:17.957Z,15.88
2022-10-19T23:52:03.639Z,27.75
2022-10-19T23:54:49.334Z,36.17
2022-10-19T23:57:35.641Z,49.55
